sensor_id;sensor_type;location;lat;lon;timestamp;pressure;altitude;pressure_sealevel;temperature;humidity
17505;BME280;8870;50.950;11.762;2023-02-10T00:01:05;100037.69;;;-3.98;100.00
17505;BME280;8870;50.950;11.762;2023-02-10T00:06:38;100043.81;;;-3.96;100.00
17505;BME280;8870;50.950;11.762;2023-02-10T00:11:59;100043.81;;;-3.98;100.00
17505;BME280;8870;50.950;11.762;2023-02-10T00:17:31;100036.81;;;-3.99;100.00
17505;BME280;8870;50.950;11.762;2023-02-10T00:22:50;100032.50;;;-4.02;100.00
17505;BME280;8870;50.950;11.762;2023-02-10T00:28:23;100036.94;;;-4.05;100.00
17505;BME280;8870;50.950;11.762;2023-02-10T00:33:41;100047.56;;;-4.10;100.00
17505;BME280;8870;50.950;11.762;2023-02-10T00:39:13;100044.09;;;-4.12;100.00
17505;BME280;8870;50.950;11.762;2023-02-10T00:44:36;100046.72;;;-4.12;100.00
17505;BME280;8870;50.950;11.762;2023-02-10T00:50:13;100051.94;;;-4.09;100.00
17505;BME280;8870;50.950;11.762;2023-02-10T00:55:23;100056.28;;;-4.06;100.00
17505;BME280;8870;50.950;11.762;2023-02-10T01:06:35;100070.16;;;-3.98;100.00
17505;BME280;8870;50.950;11.762;2023-02-10T01:12:06;100076.22;;;-3.93;100.00
17505;BME280;8870;50.950;11.762;2023-02-10T01:17:26;100074.34;;;-3.86;100.00
17505;BME280;8870;50.950;11.762;2023-02-10T01:22:59;100082.09;;;-3.80;100.00
17505;BME280;8870;50.950;11.762;2023-02-10T01:28:17;100058.34;;;-3.77;100.00
17505;BME280;8870;50.950;11.762;2023-02-10T01:33:51;100064.47;;;-3.75;100.00
17505;BME280;8870;50.950;11.762;2023-02-10T01:39:15;100072.31;;;-3.73;100.00
17505;BME280;8870;50.950;11.762;2023-02-10T01:45:11;100071.47;;;-3.74;100.00
17505;BME280;8870;50.950;11.762;2023-02-10T01:50:36;100067.88;;;-3.71;100.00
17505;BME280;8870;50.950;11.762;2023-02-10T01:56:12;100075.84;;;-3.73;100.00
17505;BME280;8870;50.950;11.762;2023-02-10T02:01:39;100080.22;;;-3.73;100.00
17505;BME280;8870;50.950;11.762;2023-02-10T02:07:10;100078.47;;;-3.74;100.00
17505;BME280;8870;50.950;11.762;2023-02-10T02:12:38;100080.25;;;-3.75;100.00
17505;BME280;8870;50.950;11.762;2023-02-10T02:18:17;100068.78;;;-3.72;100.00
17505;BME280;8870;50.950;11.762;2023-02-10T02:24:01;100081.03;;;-3.69;100.00
17505;BME280;8870;50.950;11.762;2023-02-10T02:29:49;100073.97;;;-3.67;100.00
17505;BME280;8870;50.950;11.762;2023-02-10T02:35:15;100080.03;;;-3.64;100.00
17505;BME280;8870;50.950;11.762;2023-02-10T02:40:49;100079.13;;;-3.61;100.00
17505;BME280;8870;50.950;11.762;2023-02-10T02:46:11;100073.75;;;-3.57;100.00
17505;BME280;8870;50.950;11.762;2023-02-10T02:51:52;100077.13;;;-3.50;100.00
17505;BME280;8870;50.950;11.762;2023-02-10T02:57:19;100074.31;;;-3.41;100.00
17505;BME280;8870;50.950;11.762;2023-02-10T03:02:54;100081.16;;;-3.33;100.00
17505;BME280;8870;50.950;11.762;2023-02-10T03:08:16;100081.06;;;-3.27;100.00
17505;BME280;8870;50.950;11.762;2023-02-10T03:13:47;100085.34;;;-3.23;100.00
17505;BME280;8870;50.950;11.762;2023-02-10T03:19:06;100089.72;;;-3.22;100.00
17505;BME280;8870;50.950;11.762;2023-02-10T03:24:40;100092.28;;;-3.19;100.00
17505;BME280;8870;50.950;11.762;2023-02-10T03:29:59;100101.03;;;-3.17;100.00
17505;BME280;8870;50.950;11.762;2023-02-10T03:35:35;100107.91;;;-3.10;100.00
17505;BME280;8870;50.950;11.762;2023-02-10T03:40:57;100113.13;;;-3.06;100.00
17505;BME280;8870;50.950;11.762;2023-02-10T03:46:28;100108.53;;;-2.98;100.00
17505;BME280;8870;50.950;11.762;2023-02-10T03:51:47;100105.84;;;-2.95;100.00
17505;BME280;8870;50.950;11.762;2023-02-10T03:57:20;100116.34;;;-2.92;100.00
17505;BME280;8870;50.950;11.762;2023-02-10T04:02:38;100128.53;;;-2.86;100.00
17505;BME280;8870;50.950;11.762;2023-02-10T04:08:10;100130.16;;;-2.81;100.00
17505;BME280;8870;50.950;11.762;2023-02-10T04:13:30;100126.56;;;-2.78;100.00
17505;BME280;8870;50.950;11.762;2023-02-10T04:19:01;100130.84;;;-2.72;100.00
17505;BME280;8870;50.950;11.762;2023-02-10T04:24:20;100133.41;;;-2.69;100.00
17505;BME280;8870;50.950;11.762;2023-02-10T04:29:53;100137.72;;;-2.65;100.00
17505;BME280;8870;50.950;11.762;2023-02-10T04:35:11;100139.41;;;-2.63;100.00
17505;BME280;8870;50.950;11.762;2023-02-10T04:40:42;100157.78;;;-2.58;100.00
17505;BME280;8870;50.950;11.762;2023-02-10T04:46:03;100155.03;;;-2.53;100.00
17505;BME280;8870;50.950;11.762;2023-02-10T04:51:34;100152.28;;;-2.49;100.00
17505;BME280;8870;50.950;11.762;2023-02-10T04:56:59;100154.88;;;-2.45;100.00
17505;BME280;8870;50.950;11.762;2023-02-10T05:02:33;100161.81;;;-2.41;100.00
17505;BME280;8870;50.950;11.762;2023-02-10T05:07:52;100160.81;;;-2.37;100.00
17505;BME280;8870;50.950;11.762;2023-02-10T05:13:23;100167.78;;;-2.33;100.00
17505;BME280;8870;50.950;11.762;2023-02-10T05:18:44;100163.28;;;-2.29;100.00
17505;BME280;8870;50.950;11.762;2023-02-10T05:24:15;100174.63;;;-2.26;100.00
17505;BME280;8870;50.950;11.762;2023-02-10T05:29:34;100184.91;;;-2.13;100.00
17505;BME280;8870;50.950;11.762;2023-02-10T05:35:08;100194.25;;;-2.00;100.00
17505;BME280;8870;50.950;11.762;2023-02-10T05:40:27;100199.06;;;-1.81;100.00
17505;BME280;8870;50.950;11.762;2023-02-10T05:45:58;100197.78;;;-1.65;100.00
17505;BME280;8870;50.950;11.762;2023-02-10T05:51:19;100206.38;;;-1.57;100.00
17505;BME280;8870;50.950;11.762;2023-02-10T05:56:50;100197.72;;;-1.62;100.00
17505;BME280;8870;50.950;11.762;2023-02-10T06:02:15;100203.59;;;-1.52;100.00
17505;BME280;8870;50.950;11.762;2023-02-10T06:07:49;100213.97;;;-1.43;100.00
17505;BME280;8870;50.950;11.762;2023-02-10T06:13:10;100221.59;;;-1.32;100.00
17505;BME280;8870;50.950;11.762;2023-02-10T06:18:40;100222.84;;;-1.12;100.00
17505;BME280;8870;50.950;11.762;2023-02-10T06:24:05;100221.78;;;-1.06;100.00
17505;BME280;8870;50.950;11.762;2023-02-10T06:29:36;100231.28;;;-0.99;100.00
17505;BME280;8870;50.950;11.762;2023-02-10T06:34:55;100232.88;;;-0.94;100.00
17505;BME280;8870;50.950;11.762;2023-02-10T06:40:28;100233.50;;;-0.84;100.00
17505;BME280;8870;50.950;11.762;2023-02-10T06:45:47;100241.38;;;-0.82;100.00
17505;BME280;8870;50.950;11.762;2023-02-10T06:51:17;100225.84;;;-0.95;100.00
17505;BME280;8870;50.950;11.762;2023-02-10T06:56:38;100220.75;;;-1.01;100.00
17505;BME280;8870;50.950;11.762;2023-02-10T07:02:11;100218.19;;;-1.04;100.00
17505;BME280;8870;50.950;11.762;2023-02-10T07:07:42;100224.38;;;-1.05;100.00
17505;BME280;8870;50.950;11.762;2023-02-10T07:13:03;100233.03;;;-1.00;100.00
17505;BME280;8870;50.950;11.762;2023-02-10T07:18:34;100246.19;;;-0.95;100.00
17505;BME280;8870;50.950;11.762;2023-02-10T07:23:53;100259.09;;;-0.84;100.00
17505;BME280;8870;50.950;11.762;2023-02-10T07:29:27;100277.81;;;-0.60;100.00
17505;BME280;8870;50.950;11.762;2023-02-10T07:34:46;100295.16;;;-0.50;100.00
17505;BME280;8870;50.950;11.762;2023-02-10T07:40:17;100308.13;;;-0.41;100.00
17505;BME280;8870;50.950;11.762;2023-02-10T07:45:39;100302.72;;;-0.36;100.00
17505;BME280;8870;50.950;11.762;2023-02-10T07:51:11;100317.56;;;-0.30;100.00
17505;BME280;8870;50.950;11.762;2023-02-10T07:56:30;100319.97;;;-0.23;100.00
17505;BME280;8870;50.950;11.762;2023-02-10T08:02:03;100315.34;;;-0.16;100.00
17505;BME280;8870;50.950;11.762;2023-02-10T08:07:35;100315.00;;;-0.04;100.00
17505;BME280;8870;50.950;11.762;2023-02-10T08:12:54;100309.44;;;0.06;100.00
17505;BME280;8870;50.950;11.762;2023-02-10T08:18:27;100315.34;;;0.14;100.00
17505;BME280;8870;50.950;11.762;2023-02-10T08:23:46;100307.00;;;0.26;100.00
17505;BME280;8870;50.950;11.762;2023-02-10T08:29:19;100308.34;;;0.40;100.00
17505;BME280;8870;50.950;11.762;2023-02-10T08:34:40;100302.75;;;0.49;100.00
17505;BME280;8870;50.950;11.762;2023-02-10T08:40:11;100305.13;;;0.57;100.00
17505;BME280;8870;50.950;11.762;2023-02-10T08:45:39;100307.47;;;0.66;100.00
17505;BME280;8870;50.950;11.762;2023-02-10T08:51:15;100306.34;;;0.73;100.00
17505;BME280;8870;50.950;11.762;2023-02-10T08:56:34;100291.84;;;0.84;100.00
17505;BME280;8870;50.950;11.762;2023-02-10T09:02:04;100285.59;;;0.85;100.00
17505;BME280;8870;50.950;11.762;2023-02-10T09:07:38;100283.78;;;0.87;100.00
17505;BME280;8870;50.950;11.762;2023-02-10T09:12:57;100283.84;;;0.85;100.00
17505;BME280;8870;50.950;11.762;2023-02-10T09:18:31;100295.97;;;0.92;100.00
17505;BME280;8870;50.950;11.762;2023-02-10T09:23:52;100304.03;;;0.89;100.00
17505;BME280;8870;50.950;11.762;2023-02-10T09:29:23;100317.19;;;0.92;100.00
17505;BME280;8870;50.950;11.762;2023-02-10T09:34:52;100325.00;;;0.97;100.00
17505;BME280;8870;50.950;11.762;2023-02-10T09:40:27;100331.06;;;1.01;100.00
17505;BME280;8870;50.950;11.762;2023-02-10T09:45:47;100334.50;;;1.04;100.00
17505;BME280;8870;50.950;11.762;2023-02-10T09:51:33;100338.72;;;1.10;100.00
17505;BME280;8870;50.950;11.762;2023-02-10T09:56:58;100328.03;;;1.12;100.00
17505;BME280;8870;50.950;11.762;2023-02-10T10:02:33;100327.78;;;1.19;100.00
17505;BME280;8870;50.950;11.762;2023-02-10T10:08:14;100317.00;;;1.24;100.00
17505;BME280;8870;50.950;11.762;2023-02-10T10:13:37;100327.38;;;1.30;100.00
17505;BME280;8870;50.950;11.762;2023-02-10T10:19:17;100320.13;;;1.35;100.00
17505;BME280;8870;50.950;11.762;2023-02-10T10:24:50;100323.25;;;1.47;100.00
17505;BME280;8870;50.950;11.762;2023-02-10T10:30:33;100321.97;;;1.57;100.00
17505;BME280;8870;50.950;11.762;2023-02-10T10:35:56;100322.72;;;1.84;100.00
17505;BME280;8870;50.950;11.762;2023-02-10T10:41:31;100328.38;;;1.99;100.00
17505;BME280;8870;50.950;11.762;2023-02-10T10:47:00;100318.19;;;2.10;100.00
17505;BME280;8870;50.950;11.762;2023-02-10T10:52:34;100311.34;;;2.27;100.00
17505;BME280;8870;50.950;11.762;2023-02-10T10:57:54;100307.94;;;2.45;100.00
17505;BME280;8870;50.950;11.762;2023-02-10T11:03:29;100303.03;;;2.57;100.00
17505;BME280;8870;50.950;11.762;2023-02-10T11:08:54;100292.50;;;2.76;100.00
17505;BME280;8870;50.950;11.762;2023-02-10T11:14:27;100288.28;;;2.91;100.00
17505;BME280;8870;50.950;11.762;2023-02-10T11:19:57;100286.97;;;3.01;100.00
17505;BME280;8870;50.950;11.762;2023-02-10T11:25:31;100298.09;;;3.11;100.00
17505;BME280;8870;50.950;11.762;2023-02-10T11:30:55;100288.97;;;3.17;100.00
17505;BME280;8870;50.950;11.762;2023-02-10T11:36:34;100291.22;;;3.05;100.00
17505;BME280;8870;50.950;11.762;2023-02-10T11:41:53;100286.59;;;3.11;100.00
17505;BME280;8870;50.950;11.762;2023-02-10T11:47:25;100285.66;;;3.12;100.00
17505;BME280;8870;50.950;11.762;2023-02-10T11:52:46;100278.97;;;3.01;100.00
17505;BME280;8870;50.950;11.762;2023-02-10T11:58:35;100283.38;;;3.02;100.00
17505;BME280;8870;50.950;11.762;2023-02-10T12:04:17;100285.66;;;3.12;100.00
17505;BME280;8870;50.950;11.762;2023-02-10T12:09:59;100280.97;;;3.17;100.00
17505;BME280;8870;50.950;11.762;2023-02-10T12:15:27;100275.19;;;3.28;100.00
17505;BME280;8870;50.950;11.762;2023-02-10T12:21:16;100269.13;;;3.43;100.00
17505;BME280;8870;50.950;11.762;2023-02-10T12:26:43;100258.34;;;3.65;100.00
17505;BME280;8870;50.950;11.762;2023-02-10T12:32:26;100246.97;;;3.62;100.00
17505;BME280;8870;50.950;11.762;2023-02-10T12:37:54;100253.28;;;3.59;100.00
17505;BME280;8870;50.950;11.762;2023-02-10T12:43:58;100249.47;;;3.65;100.00
17505;BME280;8870;50.950;11.762;2023-02-10T12:49:34;100230.47;;;3.53;100.00
17505;BME280;8870;50.950;11.762;2023-02-10T12:55:03;100217.13;;;3.53;100.00
17505;BME280;8870;50.950;11.762;2023-02-10T13:00:41;100226.94;;;3.53;100.00
17505;BME280;8870;50.950;11.762;2023-02-10T13:06:16;100210.66;;;3.59;100.00
17505;BME280;8870;50.950;11.762;2023-02-10T13:12:02;100213.25;;;3.61;100.00
17505;BME280;8870;50.950;11.762;2023-02-10T13:17:23;100206.63;;;3.69;100.00
17505;BME280;8870;50.950;11.762;2023-02-10T13:23:02;100199.63;;;3.67;100.00
17505;BME280;8870;50.950;11.762;2023-02-10T13:28:27;100197.13;;;3.64;100.00
17505;BME280;8870;50.950;11.762;2023-02-10T13:34:15;100201.88;;;3.57;100.00
17505;BME280;8870;50.950;11.762;2023-02-10T13:39:49;100208.34;;;3.70;100.00
17505;BME280;8870;50.950;11.762;2023-02-10T13:45:32;100206.47;;;3.73;100.00
17505;BME280;8870;50.950;11.762;2023-02-10T13:50:56;100208.91;;;3.77;100.00
17505;BME280;8870;50.950;11.762;2023-02-10T13:56:30;100207.88;;;3.99;100.00
17505;BME280;8870;50.950;11.762;2023-02-10T14:02:11;100200.69;;;4.19;100.00
17505;BME280;8870;50.950;11.762;2023-02-10T14:07:51;100192.22;;;4.28;100.00
17505;BME280;8870;50.950;11.762;2023-02-10T14:13:21;100181.78;;;4.23;100.00
17505;BME280;8870;50.950;11.762;2023-02-10T14:18:58;100171.75;;;4.28;100.00
17505;BME280;8870;50.950;11.762;2023-02-10T14:24:23;100164.13;;;4.38;100.00
17505;BME280;8870;50.950;11.762;2023-02-10T14:30:15;100164.06;;;4.40;100.00
17505;BME280;8870;50.950;11.762;2023-02-10T14:35:36;100159.59;;;4.40;100.00
17505;BME280;8870;50.950;11.762;2023-02-10T14:41:10;100154.94;;;4.44;100.00
17505;BME280;8870;50.950;11.762;2023-02-10T14:46:32;100151.97;;;4.32;100.00
17505;BME280;8870;50.950;11.762;2023-02-10T14:52:03;100161.53;;;4.19;100.00
17505;BME280;8870;50.950;11.762;2023-02-10T14:57:26;100147.94;;;4.24;100.00
17505;BME280;8870;50.950;11.762;2023-02-10T15:02:59;100153.44;;;4.03;100.00
17505;BME280;8870;50.950;11.762;2023-02-10T15:08:37;100154.13;;;3.89;100.00
17505;BME280;8870;50.950;11.762;2023-02-10T15:14:00;100154.03;;;3.73;100.00
17505;BME280;8870;50.950;11.762;2023-02-10T15:19:32;100144.25;;;3.54;100.00
17505;BME280;8870;50.950;11.762;2023-02-10T15:24:52;100156.50;;;3.39;100.00
17505;BME280;8870;50.950;11.762;2023-02-10T15:30:27;100161.59;;;3.25;100.00
17505;BME280;8870;50.950;11.762;2023-02-10T15:35:51;100159.09;;;3.22;100.00
17505;BME280;8870;50.950;11.762;2023-02-10T15:41:39;100161.41;;;3.11;100.00
17505;BME280;8870;50.950;11.762;2023-02-10T15:47:22;100146.72;;;3.02;100.00
17505;BME280;8870;50.950;11.762;2023-02-10T15:52:56;100146.72;;;3.02;100.00
17505;BME280;8870;50.950;11.762;2023-02-10T15:58:15;100146.13;;;2.95;100.00
17505;BME280;8870;50.950;11.762;2023-02-10T16:03:50;100141.22;;;2.86;100.00
17505;BME280;8870;50.950;11.762;2023-02-10T16:09:09;100146.69;;;2.83;100.00
17505;BME280;8870;50.950;11.762;2023-02-10T16:14:41;100140.84;;;2.74;100.00
17505;BME280;8870;50.950;11.762;2023-02-10T16:20:02;100126.88;;;2.69;100.00
17505;BME280;8870;50.950;11.762;2023-02-10T16:25:33;100135.19;;;2.61;100.00
17505;BME280;8870;50.950;11.762;2023-02-10T16:30:57;100134.53;;;2.56;100.00
17505;BME280;8870;50.950;11.762;2023-02-10T16:36:33;100137.66;;;2.45;100.00
17505;BME280;8870;50.950;11.762;2023-02-10T16:41:53;100138.78;;;2.40;100.00
17505;BME280;8870;50.950;11.762;2023-02-10T16:47:25;100167.66;;;2.28;100.00
17505;BME280;8870;50.950;11.762;2023-02-10T16:52:46;100151.16;;;2.20;100.00
17505;BME280;8870;50.950;11.762;2023-02-10T16:58:18;100153.63;;;2.04;100.00
17505;BME280;8870;50.950;11.762;2023-02-10T17:03:36;100153.19;;;1.93;100.00
17505;BME280;8870;50.950;11.762;2023-02-10T17:09:13;100155.53;;;1.78;100.00
17505;BME280;8870;50.950;11.762;2023-02-10T17:14:32;100149.69;;;1.70;100.00
17505;BME280;8870;50.950;11.762;2023-02-10T17:20:04;100150.03;;;1.61;100.00
17505;BME280;8870;50.950;11.762;2023-02-10T17:25:25;100160.03;;;1.54;100.00
17505;BME280;8870;50.950;11.762;2023-02-10T17:30:58;100159.41;;;1.47;100.00
17505;BME280;8870;50.950;11.762;2023-02-10T17:36:19;100167.63;;;1.41;100.00
17505;BME280;8870;50.950;11.762;2023-02-10T17:47:29;100173.66;;;1.22;100.00
17505;BME280;8870;50.950;11.762;2023-02-10T17:53:02;100181.28;;;1.08;100.00
17505;BME280;8870;50.950;11.762;2023-02-10T17:58:20;100178.84;;;1.02;100.00
17505;BME280;8870;50.950;11.762;2023-02-10T18:03:54;100174.63;;;0.96;100.00
17505;BME280;8870;50.950;11.762;2023-02-10T18:09:13;100182.88;;;0.88;100.00
17505;BME280;8870;50.950;11.762;2023-02-10T18:14:45;100198.28;;;0.79;100.00
17505;BME280;8870;50.950;11.762;2023-02-10T18:20:07;100205.84;;;0.64;100.00
17505;BME280;8870;50.950;11.762;2023-02-10T18:25:39;100208.88;;;0.53;100.00
17505;BME280;8870;50.950;11.762;2023-02-10T18:30:59;100208.38;;;0.42;100.00
17505;BME280;8870;50.950;11.762;2023-02-10T18:36:35;100205.94;;;0.36;100.00
17505;BME280;8870;50.950;11.762;2023-02-10T18:41:54;100203.78;;;0.22;100.00
17505;BME280;8870;50.950;11.762;2023-02-10T18:47:27;100187.19;;;0.15;100.00
17505;BME280;8870;50.950;11.762;2023-02-10T18:52:47;100184.88;;;0.06;100.00
17505;BME280;8870;50.950;11.762;2023-02-10T18:58:19;100201.88;;;-0.02;100.00
17505;BME280;8870;50.950;11.762;2023-02-10T19:03:45;100199.38;;;-0.06;100.00
17505;BME280;8870;50.950;11.762;2023-02-10T19:09:24;100177.25;;;-0.05;100.00
17505;BME280;8870;50.950;11.762;2023-02-10T19:14:47;100179.97;;;-0.07;100.00
17505;BME280;8870;50.950;11.762;2023-02-10T19:20:18;100165.16;;;-0.14;100.00
17505;BME280;8870;50.950;11.762;2023-02-10T19:25:38;100152.13;;;-0.20;100.00
17505;BME280;8870;50.950;11.762;2023-02-10T19:31:11;100146.94;;;-0.23;100.00
17505;BME280;8870;50.950;11.762;2023-02-10T19:36:30;100150.75;;;-0.32;100.00
17505;BME280;8870;50.950;11.762;2023-02-10T19:42:05;100147.38;;;-0.37;100.00
17505;BME280;8870;50.950;11.762;2023-02-10T19:47:23;100142.47;;;-0.50;100.00
17505;BME280;8870;50.950;11.762;2023-02-10T19:52:54;100138.19;;;-0.54;100.00
17505;BME280;8870;50.950;11.762;2023-02-10T19:58:15;100136.53;;;-0.58;100.00
17505;BME280;8870;50.950;11.762;2023-02-10T20:03:47;100140.16;;;-0.60;100.00
17505;BME280;8870;50.950;11.762;2023-02-10T20:09:19;100145.53;;;-0.64;100.00
17505;BME280;8870;50.950;11.762;2023-02-10T20:14:39;100133.22;;;-0.65;100.00
17505;BME280;8870;50.950;11.762;2023-02-10T20:20:11;100142.09;;;-0.66;100.00
17505;BME280;8870;50.950;11.762;2023-02-10T20:25:31;100128.88;;;-0.67;100.00
17505;BME280;8870;50.950;11.762;2023-02-10T20:31:05;100132.44;;;-0.68;100.00
17505;BME280;8870;50.950;11.762;2023-02-10T20:36:28;100121.97;;;-0.71;100.00
17505;BME280;8870;50.950;11.762;2023-02-10T20:41:59;100127.34;;;-0.74;100.00
17505;BME280;8870;50.950;11.762;2023-02-10T20:47:20;100126.69;;;-0.81;100.00
17505;BME280;8870;50.950;11.762;2023-02-10T20:52:51;100131.97;;;-0.81;100.00
17505;BME280;8870;50.950;11.762;2023-02-10T20:58:09;100133.72;;;-0.82;100.00
17505;BME280;8870;50.950;11.762;2023-02-10T21:03:43;100142.56;;;-0.81;100.00
17505;BME280;8870;50.950;11.762;2023-02-10T21:09:15;100144.28;;;-0.80;100.00
17505;BME280;8870;50.950;11.762;2023-02-10T21:14:33;100143.25;;;-0.74;100.00
17505;BME280;8870;50.950;11.762;2023-02-10T21:20:07;100135.78;;;-0.62;100.00
17505;BME280;8870;50.950;11.762;2023-02-10T21:25:26;100125.09;;;-0.58;100.00
17505;BME280;8870;50.950;11.762;2023-02-10T21:30:57;100118.75;;;-0.53;100.00
17505;BME280;8870;50.950;11.762;2023-02-10T21:36:20;100127.41;;;-0.48;100.00
17505;BME280;8870;50.950;11.762;2023-02-10T21:41:52;100110.47;;;-0.42;100.00
17505;BME280;8870;50.950;11.762;2023-02-10T21:47:11;100097.97;;;-0.38;100.00
17505;BME280;8870;50.950;11.762;2023-02-10T21:52:49;100094.16;;;-0.29;100.00
17505;BME280;8870;50.950;11.762;2023-02-10T21:58:08;100088.81;;;-0.28;100.00
17505;BME280;8870;50.950;11.762;2023-02-10T22:03:40;100090.47;;;-0.24;100.00
17505;BME280;8870;50.950;11.762;2023-02-10T22:09:17;100084.28;;;-0.24;100.00
17505;BME280;8870;50.950;11.762;2023-02-10T22:14:35;100072.75;;;-0.23;100.00
17505;BME280;8870;50.950;11.762;2023-02-10T22:20:06;100072.53;;;-0.17;100.00
17505;BME280;8870;50.950;11.762;2023-02-10T22:25:28;100064.72;;;-0.20;100.00
17505;BME280;8870;50.950;11.762;2023-02-10T22:30:59;100069.25;;;-0.24;100.00
17505;BME280;8870;50.950;11.762;2023-02-10T22:36:18;100070.13;;;-0.23;100.00
17505;BME280;8870;50.950;11.762;2023-02-10T22:41:51;100070.94;;;-0.21;100.00
17505;BME280;8870;50.950;11.762;2023-02-10T22:47:10;100063.09;;;-0.24;100.00
17505;BME280;8870;50.950;11.762;2023-02-10T22:52:41;100058.69;;;-0.25;100.00
17505;BME280;8870;50.950;11.762;2023-02-10T22:58:09;100052.50;;;-0.24;100.00
17505;BME280;8870;50.950;11.762;2023-02-10T23:03:40;100048.84;;;-0.22;100.00
17505;BME280;8870;50.950;11.762;2023-02-10T23:08:59;100052.38;;;-0.21;100.00
17505;BME280;8870;50.950;11.762;2023-02-10T23:20:04;100036.88;;;-0.07;100.00
17505;BME280;8870;50.950;11.762;2023-02-10T23:25:29;100041.13;;;-0.03;100.00
17505;BME280;8870;50.950;11.762;2023-02-10T23:31:10;100016.28;;;0.02;100.00
17505;BME280;8870;50.950;11.762;2023-02-10T23:36:31;99998.47;;;0.05;100.00
17505;BME280;8870;50.950;11.762;2023-02-10T23:42:02;99998.28;;;0.11;100.00
17505;BME280;8870;50.950;11.762;2023-02-10T23:47:20;99995.44;;;0.16;100.00
17505;BME280;8870;50.950;11.762;2023-02-10T23:52:53;100018.16;;;0.23;100.00
17505;BME280;8870;50.950;11.762;2023-02-10T23:58:12;100009.94;;;0.29;100.00
